createdAt,value
2023-09-10T00:00:20.658Z,3.40
2023-09-10T00:02:47.332Z,3.62
2023-09-10T00:05:14.062Z,3.40
2023-09-10T00:07:40.749Z,3.45
2023-09-10T00:10:07.914Z,3.40
2023-09-10T00:12:37.047Z,3.17
2023-09-10T00:15:05.388Z,3.90
2023-09-10T00:17:32.220Z,4.12
2023-09-10T00:19:59.091Z,3.75
2023-09-10T00:22:25.917Z,3.58
2023-09-10T00:24:52.555Z,3.87
2023-09-10T00:27:19.200Z,3.45
2023-09-10T00:29:45.862Z,3.65
2023-09-10T00:32:12.597Z,3.65
2023-09-10T00:34:41.589Z,3.95
2023-09-10T00:37:08.817Z,4.05
2023-09-10T00:39:35.473Z,3.80
2023-09-10T00:42:02.157Z,3.22
2023-09-10T00:44:28.841Z,3.45
2023-09-10T00:46:55.616Z,3.37
2023-09-10T00:49:22.294Z,3.50
2023-09-10T00:51:49.153Z,4.07
2023-09-10T00:54:16.363Z,3.85
2023-09-10T00:56:43.178Z,3.78
2023-09-10T00:59:10.109Z,3.22
2023-09-10T01:01:37.250Z,3.75
2023-09-10T01:04:04.279Z,3.58
2023-09-10T01:06:31.278Z,3.60
2023-09-10T01:08:58.220Z,3.70
2023-09-10T01:11:43.818Z,2.95
2023-09-10T01:14:22.309Z,3.50
2023-09-10T01:16:58.171Z,3.67
2023-09-10T01:19:24.898Z,3.17
2023-09-10T01:21:58.607Z,3.53
2023-09-10T01:24:36.503Z,3.67
2023-09-10T01:27:04.117Z,3.28
2023-09-10T01:29:30.844Z,3.78
2023-09-10T01:32:01.823Z,3.70
2023-09-10T01:34:31.965Z,3.55
2023-09-10T01:37:03.330Z,3.78
2023-09-10T01:39:38.271Z,3.75
2023-09-10T01:42:08.569Z,4.03
2023-09-10T01:44:36.230Z,3.15
2023-09-10T01:47:03.240Z,3.08
2023-09-10T01:49:29.880Z,3.95
2023-09-10T01:51:56.530Z,3.80
2023-09-10T01:54:23.272Z,3.30
2023-09-10T01:56:50.080Z,3.92
2023-09-10T01:59:16.881Z,3.90
2023-09-10T02:01:43.748Z,3.58
2023-09-10T02:04:10.606Z,3.33
2023-09-10T02:06:37.367Z,3.30
2023-09-10T02:09:04.235Z,3.25
2023-09-10T02:11:30.918Z,3.17
2023-09-10T02:13:57.631Z,3.70
2023-09-10T02:16:24.668Z,3.40
2023-09-10T02:18:51.365Z,3.12
2023-09-10T02:21:18.056Z,3.97
2023-09-10T02:23:44.979Z,3.40
2023-09-10T02:26:11.744Z,3.53
2023-09-10T02:28:38.639Z,3.22
2023-09-10T02:31:08.936Z,3.40
2023-09-10T02:33:36.203Z,3.37
2023-09-10T02:36:03.540Z,3.67
2023-09-10T02:38:30.393Z,4.05
2023-09-10T02:40:57.372Z,3.72
2023-09-10T02:43:24.185Z,3.28
2023-09-10T02:45:50.833Z,3.42
2023-09-10T02:48:17.449Z,3.55
2023-09-10T02:50:44.132Z,3.37
2023-09-10T02:53:13.182Z,4.22
2023-09-10T02:55:39.902Z,3.53
2023-09-10T02:58:09.712Z,3.15
2023-09-10T03:00:36.416Z,3.70
2023-09-10T03:03:05.602Z,3.45
2023-09-10T03:05:35.822Z,3.03
2023-09-10T03:08:02.580Z,3.35
2023-09-10T03:10:29.256Z,3.25
2023-09-10T03:12:55.927Z,3.70
2023-09-10T03:15:22.549Z,3.55
2023-09-10T03:17:52.149Z,3.47
2023-09-10T03:20:18.887Z,3.47
2023-09-10T03:22:45.764Z,3.62
2023-09-10T03:25:12.606Z,3.53
2023-09-10T03:27:39.398Z,3.15
2023-09-10T03:30:06.708Z,3.62
2023-09-10T03:32:33.637Z,3.30
2023-09-10T03:35:00.485Z,3.28
2023-09-10T03:37:27.142Z,3.70
2023-09-10T03:39:53.802Z,3.70
2023-09-10T03:42:20.457Z,2.92
2023-09-10T03:44:47.200Z,3.50
2023-09-10T03:47:13.924Z,3.30
2023-09-10T03:49:40.725Z,3.50
2023-09-10T03:52:17.542Z,3.50
2023-09-10T03:54:44.175Z,3.45
2023-09-10T03:57:10.848Z,3.60
2023-09-10T03:59:37.462Z,3.65
2023-09-10T04:02:04.374Z,4.20
2023-09-10T04:04:31.098Z,3.15
2023-09-10T04:06:57.784Z,3.55
2023-09-10T04:09:25.584Z,3.60
2023-09-10T04:11:52.289Z,3.50
2023-09-10T04:14:19.277Z,3.60
2023-09-10T04:16:46.123Z,3.00
2023-09-10T04:19:12.943Z,4.07
2023-09-10T04:21:39.579Z,3.47
2023-09-10T04:24:06.720Z,3.67
2023-09-10T04:26:33.437Z,3.25
2023-09-10T04:29:00.128Z,3.78
2023-09-10T04:31:29.384Z,3.35
2023-09-10T04:33:56.246Z,3.58
2023-09-10T04:36:23.484Z,3.53
2023-09-10T04:38:50.186Z,3.40
2023-09-10T04:41:17.000Z,3.72
2023-09-10T04:43:43.724Z,3.40
2023-09-10T04:46:10.433Z,3.25
2023-09-10T04:48:37.518Z,3.67
2023-09-10T04:51:04.879Z,3.15
2023-09-10T04:53:34.236Z,3.28
2023-09-10T04:56:01.012Z,3.30
2023-09-10T04:58:27.686Z,3.12
2023-09-10T05:00:54.345Z,3.33
2023-09-10T05:03:22.539Z,3.28
2023-09-10T05:05:49.620Z,3.80
2023-09-10T05:08:18.251Z,3.42
2023-09-10T05:10:49.153Z,3.87
2023-09-10T05:13:15.924Z,3.20
2023-09-10T05:15:42.678Z,3.85
2023-09-10T05:18:09.512Z,3.20
2023-09-10T05:20:36.408Z,3.58
2023-09-10T05:23:03.111Z,3.80
2023-09-10T05:25:29.751Z,3.45
2023-09-10T05:27:56.368Z,3.20
2023-09-10T05:30:23.418Z,3.22
2023-09-10T05:32:50.192Z,3.40
2023-09-10T05:35:19.982Z,3.42
2023-09-10T05:37:48.957Z,3.72
2023-09-10T05:40:15.694Z,3.70
2023-09-10T05:42:42.449Z,3.78
2023-09-10T05:45:09.429Z,3.60
2023-09-10T05:47:36.204Z,3.30
2023-09-10T05:50:03.078Z,3.25
2023-09-10T05:52:29.796Z,3.72
2023-09-10T05:54:56.466Z,3.80
2023-09-10T05:57:23.135Z,3.70
2023-09-10T05:59:50.778Z,3.72
2023-09-10T06:02:17.633Z,4.05
2023-09-10T06:04:44.430Z,3.12
2023-09-10T06:07:11.402Z,3.55
2023-09-10T06:09:38.214Z,3.35
2023-09-10T06:12:05.250Z,3.70
2023-09-10T06:14:34.949Z,3.87
2023-09-10T06:17:02.442Z,3.53
2023-09-10T06:19:29.170Z,4.15
2023-09-10T06:21:55.781Z,3.58
2023-09-10T06:24:22.546Z,4.00
2023-09-10T06:26:49.208Z,3.80
2023-09-10T06:29:15.922Z,3.90
2023-09-10T06:31:42.702Z,3.33
2023-09-10T06:34:09.450Z,3.47
2023-09-10T06:36:36.436Z,3.70
2023-09-10T06:39:04.781Z,3.72
2023-09-10T06:41:31.415Z,3.67
2023-09-10T06:43:58.085Z,3.40
2023-09-10T06:46:25.068Z,3.50
2023-09-10T06:48:51.784Z,3.53
2023-09-10T06:51:18.418Z,3.35
2023-09-10T06:53:45.083Z,3.40
2023-09-10T06:56:11.773Z,3.42
2023-09-10T06:58:38.816Z,3.37
2023-09-10T07:01:06.573Z,3.92
2023-09-10T07:03:34.638Z,3.40
2023-09-10T07:06:03.949Z,3.20
2023-09-10T07:08:30.648Z,3.45
2023-09-10T07:10:58.543Z,3.50
2023-09-10T07:13:25.197Z,3.45
2023-09-10T07:15:54.297Z,3.12
2023-09-10T07:18:21.008Z,3.15
2023-09-10T07:20:47.758Z,3.80
2023-09-10T07:23:14.560Z,3.65
2023-09-10T07:25:41.279Z,3.25
2023-09-10T07:28:07.995Z,3.70
2023-09-10T07:30:34.634Z,3.33
2023-09-10T07:33:01.295Z,3.70
2023-09-10T07:35:28.919Z,3.40
2023-09-10T07:37:56.056Z,3.47
2023-09-10T07:40:22.781Z,3.45
2023-09-10T07:42:49.445Z,3.65
2023-09-10T07:45:16.239Z,3.87
2023-09-10T07:47:43.205Z,2.97
2023-09-10T07:50:10.385Z,3.08
2023-09-10T07:52:37.112Z,3.25
2023-09-10T07:55:04.216Z,3.25
2023-09-10T07:57:30.837Z,3.10
2023-09-10T07:59:57.524Z,3.58
2023-09-10T08:02:28.120Z,3.53
2023-09-10T08:04:55.126Z,3.35
2023-09-10T08:07:21.921Z,3.85
2023-09-10T08:09:48.815Z,3.20
2023-09-10T08:12:15.478Z,3.12
2023-09-10T08:14:42.815Z,2.97
2023-09-10T08:17:09.609Z,3.25
2023-09-10T08:19:36.374Z,3.25
2023-09-10T08:22:03.571Z,3.25
2023-09-10T08:24:30.236Z,3.08
2023-09-10T08:26:56.926Z,3.33
2023-09-10T08:29:23.718Z,2.95
2023-09-10T08:31:50.471Z,3.28
2023-09-10T08:34:17.133Z,3.10
2023-09-10T08:36:43.892Z,3.05
2023-09-10T08:39:12.746Z,3.62
2023-09-10T08:41:55.328Z,3.30
2023-09-10T08:44:22.072Z,3.17
2023-09-10T08:46:50.305Z,3.08
2023-09-10T08:49:19.867Z,3.20
2023-09-10T08:51:46.667Z,3.47
2023-09-10T08:54:13.796Z,3.80
2023-09-10T08:56:40.412Z,3.12
2023-09-10T08:59:07.156Z,3.70
2023-09-10T09:01:34.804Z,3.70
2023-09-10T09:04:01.848Z,3.30
2023-09-10T09:06:30.199Z,3.20
2023-09-10T09:08:58.431Z,3.20
2023-09-10T09:11:25.320Z,2.97
2023-09-10T09:13:53.606Z,3.00
2023-09-10T09:16:21.747Z,3.12
2023-09-10T09:18:48.454Z,3.10
2023-09-10T09:21:20.142Z,3.17
2023-09-10T09:23:53.480Z,3.20
2023-09-10T09:26:20.333Z,3.20
2023-09-10T09:28:47.101Z,4.03
2023-09-10T09:31:13.832Z,3.10
2023-09-10T09:33:40.850Z,3.03
2023-09-10T09:36:11.172Z,3.10
2023-09-10T09:38:45.863Z,3.40
2023-09-10T09:41:13.208Z,3.33
2023-09-10T09:43:39.952Z,3.10
2023-09-10T09:46:06.664Z,3.20
2023-09-10T09:48:34.310Z,3.00
2023-09-10T09:51:00.987Z,2.67
2023-09-10T09:53:28.457Z,3.08
2023-09-10T09:56:00.419Z,3.70
2023-09-10T09:58:27.437Z,3.33
2023-09-10T10:00:54.220Z,3.37
2023-09-10T10:03:21.054Z,3.30
2023-09-10T10:05:51.749Z,2.80
2023-09-10T10:08:30.344Z,3.58
2023-09-10T10:10:59.887Z,2.75
2023-09-10T10:13:27.570Z,2.95
2023-09-10T10:15:55.648Z,3.12
2023-09-10T10:18:23.500Z,2.97
2023-09-10T10:20:51.022Z,3.03
2023-09-10T10:23:25.375Z,3.65
2023-09-10T10:25:54.159Z,2.90
2023-09-10T10:28:21.249Z,3.25
2023-09-10T10:30:49.836Z,2.97
2023-09-10T10:33:20.514Z,3.15
2023-09-10T10:36:10.884Z,3.00
2023-09-10T10:38:40.249Z,3.10
2023-09-10T10:41:18.813Z,2.58
2023-09-10T10:43:52.153Z,2.87
2023-09-10T10:46:19.506Z,2.95
2023-09-10T10:48:46.257Z,3.20
2023-09-10T10:51:16.134Z,3.25
2023-09-10T10:53:44.952Z,3.05
2023-09-10T10:56:11.598Z,2.90
2023-09-10T10:58:41.485Z,3.03
2023-09-10T11:01:08.291Z,3.17
2023-09-10T11:03:35.109Z,2.80
2023-09-10T11:06:06.111Z,2.78
2023-09-10T11:08:36.142Z,3.10
2023-09-10T11:11:04.910Z,2.92
2023-09-10T11:13:33.069Z,3.08
2023-09-10T11:16:06.283Z,2.92
2023-09-10T11:18:35.929Z,2.75
2023-09-10T11:21:09.574Z,3.10
2023-09-10T11:23:40.154Z,3.10
2023-09-10T11:26:16.384Z,2.90
2023-09-10T11:28:48.068Z,2.67
2023-09-10T11:31:39.939Z,3.20
2023-09-10T11:34:19.289Z,3.45
2023-09-10T11:36:47.437Z,2.85
2023-09-10T11:39:15.462Z,2.95
2023-09-10T11:41:49.258Z,3.30
2023-09-10T11:44:16.233Z,2.87
2023-09-10T11:46:45.540Z,3.17
2023-09-10T11:49:14.233Z,2.87
2023-09-10T11:51:42.428Z,3.08
2023-09-10T11:54:11.231Z,2.80
2023-09-10T11:56:37.935Z,3.17
2023-09-10T11:59:06.766Z,3.00
2023-09-10T12:01:33.503Z,3.00
2023-09-10T12:04:01.581Z,2.83
2023-09-10T12:06:28.335Z,2.80
2023-09-10T12:08:55.438Z,2.85
2023-09-10T12:11:22.218Z,2.78
2023-09-10T12:13:48.904Z,2.80
2023-09-10T12:16:15.629Z,2.83
2023-09-10T12:18:42.926Z,3.00
2023-09-10T12:21:15.498Z,2.70
2023-09-10T12:23:42.896Z,2.65
2023-09-10T12:26:09.811Z,2.70
2023-09-10T12:28:36.434Z,3.03
2023-09-10T12:31:03.682Z,2.97
2023-09-10T12:33:30.380Z,2.87
2023-09-10T12:35:57.210Z,3.12
2023-09-10T12:38:23.983Z,2.60
2023-09-10T12:40:51.467Z,2.83
2023-09-10T12:43:21.910Z,2.95
2023-09-10T12:45:48.682Z,2.97
2023-09-10T12:48:19.000Z,2.55
2023-09-10T12:50:46.612Z,2.60
2023-09-10T12:53:15.461Z,3.20
2023-09-10T12:55:42.642Z,3.00
2023-09-10T12:58:12.936Z,3.15
2023-09-10T13:00:39.742Z,2.60
2023-09-10T13:03:06.875Z,2.65
2023-09-10T13:05:33.652Z,2.95
2023-09-10T13:08:04.426Z,2.45
2023-09-10T13:10:31.211Z,2.90
2023-09-10T13:12:57.883Z,3.03
2023-09-10T13:15:24.558Z,2.53
2023-09-10T13:17:51.456Z,2.30
2023-09-10T13:20:18.398Z,2.58
2023-09-10T13:22:45.559Z,2.62
2023-09-10T13:25:12.823Z,2.80
2023-09-10T13:27:39.682Z,2.70
2023-09-10T13:30:07.399Z,3.08
2023-09-10T13:32:34.174Z,3.00
2023-09-10T13:35:01.071Z,2.55
2023-09-10T13:37:27.787Z,2.47
2023-09-10T13:39:54.377Z,3.15
2023-09-10T13:42:21.151Z,2.53
2023-09-10T13:44:48.064Z,2.87
2023-09-10T13:47:14.878Z,2.62
2023-09-10T13:49:41.568Z,2.67
2023-09-10T13:52:08.200Z,2.70
2023-09-10T13:54:34.825Z,2.53
2023-09-10T13:57:01.512Z,2.50
2023-09-10T13:59:28.244Z,2.78
2023-09-10T14:01:55.004Z,2.50
2023-09-10T14:04:21.695Z,2.75
2023-09-10T14:06:48.319Z,2.67
2023-09-10T14:09:14.977Z,2.78
2023-09-10T14:11:41.713Z,3.03
2023-09-10T14:14:08.434Z,2.78
2023-09-10T14:16:35.113Z,2.75
2023-09-10T14:19:01.934Z,3.08
2023-09-10T14:21:28.602Z,3.05
2023-09-10T14:23:55.230Z,2.83
2023-09-10T14:26:21.876Z,2.58
2023-09-10T14:28:48.524Z,3.12
2023-09-10T14:31:15.294Z,2.83
2023-09-10T14:33:43.597Z,2.42
2023-09-10T14:36:10.770Z,2.55
2023-09-10T14:38:37.503Z,2.80
2023-09-10T14:41:04.206Z,2.37
2023-09-10T14:43:30.872Z,3.03
2023-09-10T14:45:58.114Z,3.20
2023-09-10T14:48:25.080Z,2.60
2023-09-10T14:50:52.152Z,2.85
2023-09-10T14:53:18.954Z,2.58
2023-09-10T14:55:45.691Z,2.85
2023-09-10T14:58:12.661Z,2.83
2023-09-10T15:00:40.264Z,2.78
2023-09-10T15:03:08.316Z,2.60
2023-09-10T15:05:35.376Z,2.55
2023-09-10T15:08:02.295Z,3.05
2023-09-10T15:10:28.994Z,2.90
2023-09-10T15:12:55.748Z,3.00
2023-09-10T15:15:22.447Z,3.15
2023-09-10T15:17:49.214Z,2.83
2023-09-10T15:20:16.059Z,2.62
2023-09-10T15:22:44.286Z,2.87
2023-09-10T15:25:11.364Z,3.12
2023-09-10T15:27:39.283Z,2.87
2023-09-10T15:30:06.467Z,2.67
2023-09-10T15:32:33.233Z,2.75
2023-09-10T15:34:59.954Z,2.78
2023-09-10T15:37:26.700Z,2.78
2023-09-10T15:39:53.544Z,2.50
2023-09-10T15:42:20.165Z,3.00
2023-09-10T15:44:46.996Z,2.50
2023-09-10T15:47:13.758Z,3.00
2023-09-10T15:49:40.477Z,2.78
2023-09-10T15:52:07.214Z,3.30
2023-09-10T15:54:36.324Z,3.00
2023-09-10T15:57:04.755Z,3.12
2023-09-10T15:59:31.724Z,2.70
2023-09-10T16:02:15.390Z,3.05
2023-09-10T16:04:42.137Z,2.83
2023-09-10T16:07:08.858Z,2.53
2023-09-10T16:09:35.523Z,2.92
2023-09-10T16:12:02.293Z,2.90
2023-09-10T16:14:28.962Z,2.78
2023-09-10T16:16:56.770Z,2.75
2023-09-10T16:19:23.705Z,2.87
2023-09-10T16:21:50.353Z,3.03
2023-09-10T16:24:17.010Z,3.33
2023-09-10T16:26:43.811Z,2.58
2023-09-10T16:29:10.877Z,2.67
2023-09-10T16:31:37.515Z,2.62
2023-09-10T16:34:04.335Z,2.72
2023-09-10T16:36:34.691Z,2.62
2023-09-10T16:39:01.920Z,2.67
2023-09-10T16:41:28.676Z,2.72
2023-09-10T16:43:55.376Z,2.85
2023-09-10T16:46:22.249Z,2.50
2023-09-10T16:48:48.996Z,3.00
2023-09-10T16:51:15.814Z,3.00
2023-09-10T16:53:43.219Z,2.95
2023-09-10T16:56:10.231Z,2.87
2023-09-10T16:58:39.377Z,3.08
2023-09-10T17:01:06.148Z,2.75
2023-09-10T17:03:33.168Z,2.60
2023-09-10T17:06:09.339Z,2.85
2023-09-10T17:08:36.216Z,3.22
2023-09-10T17:11:04.207Z,3.17
2023-09-10T17:13:31.288Z,3.00
2023-09-10T17:16:06.821Z,2.60
2023-09-10T17:18:33.908Z,2.90
2023-09-10T17:21:00.578Z,2.95
2023-09-10T17:23:27.274Z,2.90
2023-09-10T17:26:00.649Z,2.47
2023-09-10T17:28:27.354Z,2.90
2023-09-10T17:30:54.011Z,2.85
2023-09-10T17:33:20.719Z,2.60
2023-09-10T17:35:50.265Z,2.80
2023-09-10T17:38:17.896Z,2.90
2023-09-10T17:40:44.736Z,2.37
2023-09-10T17:43:11.482Z,3.00
2023-09-10T17:45:38.182Z,3.28
2023-09-10T17:48:05.363Z,2.97
2023-09-10T17:50:32.148Z,2.75
2023-09-10T17:52:58.828Z,3.03
2023-09-10T17:55:29.076Z,3.20
2023-09-10T17:57:56.644Z,2.45
2023-09-10T18:00:23.941Z,2.95
2023-09-10T18:02:51.299Z,3.00
2023-09-10T18:05:18.373Z,2.90
2023-09-10T18:07:45.029Z,2.87
2023-09-10T18:10:11.934Z,3.20
2023-09-10T18:12:38.711Z,2.87
2023-09-10T18:15:06.227Z,3.35
2023-09-10T18:17:33.663Z,3.10
2023-09-10T18:20:00.719Z,3.28
2023-09-10T18:22:27.384Z,2.70
2023-09-10T18:24:54.134Z,2.80
2023-09-10T18:27:20.812Z,2.87
2023-09-10T18:29:47.646Z,3.60
2023-09-10T18:32:14.520Z,2.80
2023-09-10T18:34:41.198Z,2.80
2023-09-10T18:37:07.861Z,2.70
2023-09-10T18:39:34.531Z,2.72
2023-09-10T18:42:01.232Z,3.30
2023-09-10T18:44:28.020Z,2.80
2023-09-10T18:46:55.479Z,2.72
2023-09-10T18:49:22.148Z,3.17
2023-09-10T18:52:11.121Z,3.12
2023-09-10T18:54:38.552Z,3.22
2023-09-10T18:57:06.559Z,3.45
2023-09-10T18:59:33.593Z,3.90
2023-09-10T19:02:00.476Z,3.60
2023-09-10T19:04:27.606Z,3.60
2023-09-10T19:06:54.347Z,3.72
2023-09-10T19:09:20.984Z,4.00
2023-09-10T19:11:47.764Z,3.28
2023-09-10T19:14:17.689Z,3.90
2023-09-10T19:16:44.666Z,3.50
2023-09-10T19:19:11.456Z,3.30
2023-09-10T19:21:41.135Z,4.22
2023-09-10T19:24:08.069Z,4.35
2023-09-10T19:26:34.951Z,4.87
2023-09-10T19:29:01.876Z,4.32
2023-09-10T19:31:34.599Z,4.15
2023-09-10T19:34:04.402Z,4.00
2023-09-10T19:36:34.465Z,3.55
2023-09-10T19:39:08.840Z,4.28
2023-09-10T19:41:35.846Z,4.18
2023-09-10T19:44:03.142Z,4.00
2023-09-10T19:46:30.585Z,3.95
2023-09-10T19:48:57.301Z,4.20
2023-09-10T19:51:24.339Z,4.03
2023-09-10T19:53:53.665Z,4.32
2023-09-10T19:56:23.305Z,4.75
2023-09-10T19:59:07.565Z,4.53
2023-09-10T20:01:44.885Z,4.50
2023-09-10T20:04:12.109Z,3.90
2023-09-10T20:06:39.822Z,4.40
2023-09-10T20:09:08.486Z,4.50
2023-09-10T20:11:35.581Z,4.37
2023-09-10T20:14:02.551Z,4.10
2023-09-10T20:16:29.275Z,4.78
2023-09-10T20:18:56.229Z,4.90
2023-09-10T20:21:23.916Z,4.78
2023-09-10T20:23:50.651Z,4.85
2023-09-10T20:26:17.407Z,4.22
2023-09-10T20:28:44.211Z,4.78
2023-09-10T20:31:10.962Z,4.53
2023-09-10T20:33:37.734Z,4.60
2023-09-10T20:36:08.304Z,5.05
2023-09-10T20:38:35.870Z,4.68
2023-09-10T20:41:05.951Z,4.20
2023-09-10T20:43:32.605Z,4.45
2023-09-10T20:45:59.248Z,4.05
2023-09-10T20:48:25.893Z,4.78
2023-09-10T20:50:53.941Z,4.15
2023-09-10T20:53:20.885Z,4.80
2023-09-10T20:55:47.610Z,4.43
2023-09-10T20:58:14.357Z,4.40
2023-09-10T21:00:41.661Z,4.20
2023-09-10T21:03:18.235Z,4.87
2023-09-10T21:05:53.291Z,4.65
2023-09-10T21:08:20.385Z,4.37
2023-09-10T21:10:47.265Z,4.53
2023-09-10T21:13:14.028Z,4.50
2023-09-10T21:15:40.701Z,3.80
2023-09-10T21:18:07.659Z,4.40
2023-09-10T21:20:34.546Z,4.18
2023-09-10T21:23:01.341Z,4.60
2023-09-10T21:25:27.998Z,4.20
2023-09-10T21:27:54.749Z,4.25
2023-09-10T21:30:21.369Z,3.67
2023-09-10T21:32:48.915Z,3.90
2023-09-10T21:35:15.919Z,3.65
2023-09-10T21:37:42.651Z,4.05
2023-09-10T21:40:11.482Z,3.80
2023-09-10T21:42:38.089Z,4.45
2023-09-10T21:45:05.383Z,4.20
2023-09-10T21:47:32.271Z,4.43
2023-09-10T21:49:59.008Z,3.85
2023-09-10T21:52:25.682Z,4.43
2023-09-10T21:54:52.417Z,4.40
2023-09-10T21:57:19.218Z,4.10
2023-09-10T21:59:46.019Z,4.37
2023-09-10T22:02:12.705Z,3.72
2023-09-10T22:04:39.489Z,3.85
2023-09-10T22:07:06.236Z,4.03
2023-09-10T22:09:33.822Z,4.25
2023-09-10T22:12:00.681Z,4.00
2023-09-10T22:14:27.373Z,4.35
2023-09-10T22:16:54.099Z,4.10
2023-09-10T22:19:20.816Z,3.97
2023-09-10T22:21:50.268Z,4.60
2023-09-10T22:24:16.950Z,4.35
2023-09-10T22:26:43.633Z,4.28
2023-09-10T22:29:10.259Z,4.47
2023-09-10T22:31:36.905Z,4.32
2023-09-10T22:34:03.641Z,4.68
2023-09-10T22:36:38.092Z,4.12
2023-09-10T22:39:06.096Z,4.28
2023-09-10T22:41:32.826Z,4.07
2023-09-10T22:43:59.548Z,4.57
2023-09-10T22:46:28.369Z,4.35
2023-09-10T22:48:55.258Z,4.28
2023-09-10T22:51:21.999Z,4.30
2023-09-10T22:53:51.942Z,3.90
2023-09-10T22:56:21.331Z,4.30
2023-09-10T22:58:48.640Z,4.57
2023-09-10T23:01:15.775Z,4.30
2023-09-10T23:03:42.744Z,4.40
2023-09-10T23:06:09.927Z,3.92
2023-09-10T23:08:39.900Z,4.70
2023-09-10T23:11:07.466Z,4.00
2023-09-10T23:13:35.938Z,4.37
2023-09-10T23:16:03.134Z,4.15
2023-09-10T23:18:30.017Z,4.60
2023-09-10T23:20:56.809Z,4.00
2023-09-10T23:23:23.625Z,4.60
2023-09-10T23:25:50.440Z,4.72
2023-09-10T23:28:17.068Z,4.55
2023-09-10T23:30:43.808Z,4.37
2023-09-10T23:33:10.754Z,4.30
2023-09-10T23:35:38.665Z,4.07
2023-09-10T23:38:07.378Z,4.85
2023-09-10T23:40:34.092Z,4.28
2023-09-10T23:43:00.791Z,4.55
2023-09-10T23:45:27.589Z,4.37
2023-09-10T23:47:54.436Z,4.62
2023-09-10T23:50:21.418Z,4.30
2023-09-10T23:52:49.272Z,4.35
2023-09-10T23:55:16.124Z,4.32
2023-09-10T23:57:42.966Z,4.03
